createdAt,value
2022-10-15T00:00:42.550Z,13.19
2022-10-15T00:05:23.253Z,13.18
2022-10-15T00:10:05.146Z,13.13
2022-10-15T00:14:45.762Z,13.00
2022-10-15T00:19:26.178Z,12.87
2022-10-15T00:24:07.354Z,12.86
2022-10-15T00:28:50.897Z,12.87
2022-10-15T00:33:31.409Z,12.93
2022-10-15T00:38:11.904Z,12.82
2022-10-15T00:42:52.278Z,12.83
2022-10-15T00:47:40.029Z,12.61
2022-10-15T00:52:24.972Z,12.33
2022-10-15T00:57:06.775Z,12.33
2022-10-15T01:01:47.421Z,12.63
2022-10-15T01:06:28.610Z,12.70
2022-10-15T01:11:26.664Z,12.78
2022-10-15T01:21:09.434Z,12.97
2022-10-15T01:26:07.897Z,13.00
2022-10-15T01:30:56.391Z,13.05
2022-10-15T01:35:47.822Z,13.09
2022-10-15T01:40:33.345Z,13.12
2022-10-15T01:45:18.554Z,13.13
2022-10-15T01:50:03.218Z,13.17
2022-10-15T01:54:44.846Z,13.16
2022-10-15T01:59:28.472Z,13.15
2022-10-15T02:04:20.721Z,13.22
2022-10-15T02:09:12.070Z,13.25
2022-10-15T02:14:01.198Z,13.27
2022-10-15T02:18:44.074Z,13.29
2022-10-15T02:23:28.414Z,13.32
2022-10-15T02:28:12.311Z,13.32
2022-10-15T02:32:55.082Z,13.30
2022-10-15T02:37:36.581Z,13.31
2022-10-15T02:42:18.832Z,13.31
2022-10-15T02:47:01.010Z,13.32
2022-10-15T02:51:41.677Z,13.34
2022-10-15T02:56:21.937Z,13.31
2022-10-15T03:01:02.391Z,13.34
2022-10-15T03:05:44.325Z,13.30
2022-10-15T03:10:24.405Z,13.25
2022-10-15T03:15:05.144Z,13.20
2022-10-15T03:19:45.452Z,13.22
2022-10-15T03:24:26.938Z,13.15
2022-10-15T03:29:06.857Z,13.13
2022-10-15T03:33:47.076Z,13.07
2022-10-15T03:38:27.534Z,13.05
2022-10-15T03:43:08.953Z,13.02
2022-10-15T03:47:49.352Z,13.03
2022-10-15T03:52:29.632Z,13.09
2022-10-15T03:57:09.973Z,13.15
2022-10-15T04:01:51.652Z,13.23
2022-10-15T04:06:34.245Z,13.22
2022-10-15T04:11:14.285Z,13.22
2022-10-15T04:15:54.234Z,13.26
2022-10-15T04:20:36.343Z,13.28
2022-10-15T04:25:17.167Z,13.32
2022-10-15T04:29:57.410Z,13.36
2022-10-15T04:34:38.953Z,13.35
2022-10-15T04:39:20.579Z,13.41
2022-10-15T04:44:00.901Z,13.30
2022-10-15T04:48:43.206Z,13.15
2022-10-15T04:53:24.273Z,13.03
2022-10-15T04:58:06.001Z,13.03
2022-10-15T05:02:46.229Z,12.99
2022-10-15T05:07:28.550Z,12.96
2022-10-15T05:12:09.039Z,12.84
2022-10-15T05:16:50.572Z,12.85
2022-10-15T05:21:31.882Z,12.80
2022-10-15T05:26:16.488Z,12.88
2022-10-15T05:30:56.527Z,12.91
2022-10-15T05:35:39.483Z,12.86
2022-10-15T05:40:21.959Z,12.97
2022-10-15T05:45:02.665Z,13.03
2022-10-15T05:49:42.718Z,13.14
2022-10-15T05:54:24.469Z,13.16
2022-10-15T05:59:04.843Z,13.20
2022-10-15T06:03:45.264Z,13.18
2022-10-15T06:08:25.386Z,13.15
2022-10-15T06:13:07.335Z,13.16
2022-10-15T06:17:47.522Z,13.19
2022-10-15T06:22:28.418Z,13.22
2022-10-15T06:27:10.048Z,13.30
2022-10-15T06:31:51.646Z,13.43
2022-10-15T06:36:32.073Z,13.60
2022-10-15T06:41:12.601Z,13.71
2022-10-15T06:45:53.176Z,13.78
2022-10-15T06:50:35.546Z,13.90
2022-10-15T06:55:15.687Z,13.98
2022-10-15T06:59:56.194Z,14.17
2022-10-15T07:04:36.897Z,14.11
2022-10-15T07:09:19.333Z,14.16
2022-10-15T07:13:59.605Z,14.20
2022-10-15T07:18:40.389Z,14.22
2022-10-15T07:23:24.093Z,14.25
2022-10-15T07:28:08.806Z,14.30
2022-10-15T07:32:50.260Z,14.41
2022-10-15T07:37:31.768Z,14.51
2022-10-15T07:46:55.307Z,14.55
2022-10-15T07:51:35.333Z,14.72
2022-10-15T07:56:17.044Z,14.77
2022-10-15T08:01:00.196Z,14.90
2022-10-15T08:05:42.165Z,15.06
2022-10-15T08:10:23.322Z,15.12
2022-10-15T08:15:03.627Z,15.25
2022-10-15T08:19:43.891Z,15.75
2022-10-15T08:24:25.438Z,16.10
2022-10-15T08:29:06.254Z,16.18
2022-10-15T08:33:47.008Z,16.52
2022-10-15T08:38:27.386Z,16.50
2022-10-15T08:43:19.334Z,17.34
2022-10-15T08:48:03.979Z,16.80
2022-10-15T08:52:47.205Z,16.43
2022-10-15T08:57:39.289Z,16.34
2022-10-15T09:02:24.945Z,16.24
2022-10-15T09:07:15.227Z,16.40
2022-10-15T09:12:04.849Z,16.83
2022-10-15T09:16:49.417Z,17.19
2022-10-15T09:21:32.573Z,16.84
2022-10-15T09:26:26.938Z,16.86
2022-10-15T09:31:09.693Z,16.63
2022-10-15T09:35:54.915Z,16.42
2022-10-15T09:40:45.425Z,16.55
2022-10-15T09:45:25.608Z,16.10
2022-10-15T09:50:07.855Z,15.96
2022-10-15T09:55:01.512Z,15.68
2022-10-15T09:59:53.766Z,15.62
2022-10-15T10:04:37.197Z,15.60
2022-10-15T10:09:20.361Z,15.77
2022-10-15T10:14:02.139Z,15.83
2022-10-15T10:18:50.503Z,15.82
2022-10-15T10:23:34.927Z,15.93
2022-10-15T10:28:20.747Z,16.01
2022-10-15T10:33:02.944Z,16.21
2022-10-15T10:37:44.796Z,16.34
2022-10-15T10:42:28.777Z,16.65
2022-10-15T10:47:15.428Z,16.86
2022-10-15T10:51:55.560Z,17.00
2022-10-15T10:56:41.861Z,17.15
2022-10-15T11:01:21.965Z,17.35
2022-10-15T11:06:23.788Z,17.28
2022-10-15T11:11:13.854Z,17.47
2022-10-15T11:16:00.651Z,17.90
2022-10-15T11:20:58.712Z,18.23
2022-10-15T11:25:47.955Z,18.32
2022-10-15T11:30:39.260Z,18.49
2022-10-15T11:35:51.686Z,18.58
2022-10-15T11:40:44.718Z,18.62
2022-10-15T11:45:43.638Z,18.97
2022-10-15T11:50:31.692Z,18.98
2022-10-15T11:55:18.713Z,18.99
2022-10-15T12:00:04.302Z,19.09
2022-10-15T12:04:49.562Z,19.09
2022-10-15T12:09:35.451Z,19.16
2022-10-15T12:14:24.621Z,19.27
2022-10-15T12:19:14.980Z,19.25
2022-10-15T12:23:55.323Z,19.36
2022-10-15T12:28:36.964Z,19.25
2022-10-15T12:33:30.325Z,19.41
2022-10-15T12:38:26.149Z,19.35
2022-10-15T12:43:15.950Z,19.38
2022-10-15T12:48:18.710Z,19.62
2022-10-15T12:53:02.643Z,19.46
2022-10-15T12:57:53.866Z,18.89
2022-10-15T13:02:39.349Z,18.79
2022-10-15T13:07:21.581Z,19.20
2022-10-15T13:12:03.164Z,19.45
2022-10-15T13:16:44.973Z,19.44
2022-10-15T13:21:49.590Z,19.51
2022-10-15T13:26:32.268Z,19.44
2022-10-15T13:31:18.760Z,19.41
2022-10-15T13:36:06.440Z,19.31
2022-10-15T13:40:49.617Z,19.32
2022-10-15T13:45:31.687Z,19.18
2022-10-15T13:50:13.057Z,19.24
2022-10-15T13:54:53.043Z,19.12
2022-10-15T13:59:33.132Z,19.05
2022-10-15T14:04:18.364Z,19.06
2022-10-15T14:09:00.741Z,18.66
2022-10-15T14:13:45.875Z,18.18
2022-10-15T14:18:35.670Z,17.93
2022-10-15T14:23:21.735Z,17.76
2022-10-15T14:28:01.998Z,18.68
2022-10-15T14:32:47.706Z,18.57
2022-10-15T14:37:31.603Z,18.50
2022-10-15T14:42:28.648Z,18.19
2022-10-15T14:47:19.108Z,18.14
2022-10-15T14:52:04.597Z,18.02
2022-10-15T14:56:44.961Z,17.89
2022-10-15T15:01:27.761Z,17.49
2022-10-15T15:06:08.855Z,17.32
2022-10-15T15:10:50.070Z,17.16
2022-10-15T15:15:30.316Z,17.18
2022-10-15T15:20:13.178Z,17.16
2022-10-15T15:24:54.149Z,17.23
2022-10-15T15:29:34.605Z,17.21
2022-10-15T15:34:14.897Z,17.22
2022-10-15T15:38:58.802Z,17.22
2022-10-15T15:43:39.524Z,17.26
2022-10-15T15:48:19.788Z,17.33
2022-10-15T15:53:00.235Z,17.25
2022-10-15T15:57:42.336Z,17.21
2022-10-15T16:02:22.670Z,17.17
2022-10-15T16:07:03.085Z,17.10
2022-10-15T16:11:43.346Z,17.05
2022-10-15T16:16:26.314Z,17.02
2022-10-15T16:21:07.486Z,16.95
2022-10-15T16:25:48.716Z,16.87
2022-10-15T16:30:30.820Z,16.80
2022-10-15T16:35:13.091Z,16.76
2022-10-15T16:39:53.495Z,16.72
2022-10-15T16:44:34.151Z,16.65
2022-10-15T16:49:14.988Z,16.58
2022-10-15T16:53:57.415Z,16.53
2022-10-15T16:58:38.622Z,16.42
2022-10-15T17:03:19.449Z,16.32
2022-10-15T17:08:00.060Z,16.22
2022-10-15T17:12:42.033Z,16.12
2022-10-15T17:17:23.141Z,16.08
2022-10-15T17:22:03.623Z,16.04
2022-10-15T17:26:45.424Z,16.02
2022-10-15T17:31:28.825Z,15.98
2022-10-15T17:36:11.541Z,15.81
2022-10-15T17:40:52.453Z,15.71
2022-10-15T17:45:33.127Z,15.60
2022-10-15T17:50:15.236Z,15.47
2022-10-15T17:54:55.488Z,15.31
2022-10-15T17:59:37.680Z,15.23
2022-10-15T18:04:18.747Z,15.19
2022-10-15T18:09:00.435Z,15.08
2022-10-15T18:13:40.845Z,15.00
2022-10-15T18:18:21.298Z,14.93
2022-10-15T18:23:01.762Z,14.88
2022-10-15T18:27:43.694Z,14.79
2022-10-15T18:32:24.349Z,14.81
2022-10-15T18:37:04.515Z,14.72
2022-10-15T18:46:33.602Z,14.62
2022-10-15T18:51:14.122Z,14.51
2022-10-15T18:55:54.799Z,14.53
2022-10-15T19:00:36.748Z,14.43
2022-10-15T19:05:19.167Z,14.41
2022-10-15T19:09:59.463Z,14.48
2022-10-15T19:14:39.949Z,14.35
2022-10-15T19:19:22.819Z,14.49
2022-10-15T19:24:04.756Z,14.51
2022-10-15T19:28:47.004Z,14.45
2022-10-15T19:33:27.933Z,14.44
2022-10-15T19:38:08.363Z,14.48
2022-10-15T19:42:49.716Z,14.41
2022-10-15T19:47:29.876Z,14.45
2022-10-15T19:52:10.748Z,14.35
2022-10-15T19:56:51.682Z,14.39
2022-10-15T20:01:34.074Z,14.31
2022-10-15T20:06:14.388Z,14.28
2022-10-15T20:10:55.122Z,14.25
2022-10-15T20:15:35.395Z,14.17
2022-10-15T20:20:17.184Z,14.13
2022-10-15T20:24:57.716Z,14.17
2022-10-15T20:29:37.702Z,14.17
2022-10-15T20:34:18.011Z,14.16
2022-10-15T20:39:02.068Z,14.13
2022-10-15T20:43:43.249Z,14.15
2022-10-15T20:48:26.706Z,14.09
2022-10-15T20:53:07.024Z,14.16
2022-10-15T20:57:49.469Z,14.20
2022-10-15T21:02:31.125Z,14.17
2022-10-15T21:07:11.998Z,14.20
2022-10-15T21:11:53.374Z,14.17
2022-10-15T21:16:34.899Z,14.16
2022-10-15T21:21:16.319Z,14.26
2022-10-15T21:25:57.304Z,14.15
2022-10-15T21:30:41.113Z,14.17
2022-10-15T21:35:22.676Z,14.14
2022-10-15T21:40:02.698Z,14.18
2022-10-15T21:44:43.121Z,14.14
2022-10-15T21:49:23.385Z,14.16
2022-10-15T21:54:06.334Z,14.16
2022-10-15T21:58:47.021Z,14.07
2022-10-15T22:03:27.254Z,14.05
2022-10-15T22:08:07.928Z,14.15
2022-10-15T22:12:53.332Z,14.16
2022-10-15T22:17:33.735Z,14.10
2022-10-15T22:22:13.769Z,13.99
2022-10-15T22:26:54.458Z,13.99
2022-10-15T22:31:36.046Z,13.87
2022-10-15T22:36:18.071Z,13.90
2022-10-15T22:40:58.765Z,13.89
2022-10-15T22:45:38.787Z,13.83
2022-10-15T22:50:20.633Z,13.84
2022-10-15T22:55:01.424Z,13.91
2022-10-15T22:59:43.740Z,13.89
2022-10-15T23:04:23.828Z,13.88
2022-10-15T23:09:06.983Z,13.88
2022-10-15T23:13:48.453Z,13.87
2022-10-15T23:18:28.805Z,13.90
2022-10-15T23:23:09.247Z,13.94
2022-10-15T23:27:51.009Z,13.82
2022-10-15T23:32:31.289Z,13.92
2022-10-15T23:37:11.422Z,14.01
2022-10-15T23:41:51.356Z,14.05
2022-10-15T23:46:32.827Z,14.04
2022-10-15T23:51:14.296Z,13.96
2022-10-15T23:55:54.842Z,14.01
